sensor_id;sensor_type;location;lat;lon;timestamp;pressure;altitude;pressure_sealevel;temperature;humidity
67517;BME280;54359;59.124;37.910;2022-10-16T00:00:03;100587.59;;;9.10;76.60
67517;BME280;54359;59.124;37.910;2022-10-16T00:02:30;100590.94;;;9.07;76.25
67517;BME280;54359;59.124;37.910;2022-10-16T00:04:56;100592.59;;;9.05;76.02
67517;BME280;54359;59.124;37.910;2022-10-16T00:07:23;100591.00;;;9.10;75.54
67517;BME280;54359;59.124;37.910;2022-10-16T00:09:48;100591.81;;;9.07;76.51
67517;BME280;54359;59.124;37.910;2022-10-16T00:12:14;100602.16;;;9.11;76.34
67517;BME280;54359;59.124;37.910;2022-10-16T00:14:40;100596.94;;;9.07;76.09
67517;BME280;54359;59.124;37.910;2022-10-16T00:17:08;100596.03;;;9.05;76.50
67517;BME280;54359;59.124;37.910;2022-10-16T00:19:35;100602.06;;;9.07;76.18
67517;BME280;54359;59.124;37.910;2022-10-16T00:22:01;100605.50;;;9.08;76.24
67517;BME280;54359;59.124;37.910;2022-10-16T00:24:45;100607.94;;;9.03;76.60
67517;BME280;54359;59.124;37.910;2022-10-16T00:27:11;100595.06;;;9.02;76.69
67517;BME280;54359;59.124;37.910;2022-10-16T00:29:37;100611.47;;;9.07;76.71
67517;BME280;54359;59.124;37.910;2022-10-16T00:32:03;100609.59;;;9.01;76.53
67517;BME280;54359;59.124;37.910;2022-10-16T00:34:29;100612.25;;;9.04;76.34
67517;BME280;54359;59.124;37.910;2022-10-16T00:36:55;100604.47;;;9.01;76.43
67517;BME280;54359;59.124;37.910;2022-10-16T00:39:21;100604.56;;;9.04;76.12
67517;BME280;54359;59.124;37.910;2022-10-16T00:41:47;100603.50;;;8.96;76.11
67517;BME280;54359;59.124;37.910;2022-10-16T00:47:26;100605.84;;;8.89;75.92
67517;BME280;54359;59.124;37.910;2022-10-16T00:49:58;100621.22;;;8.89;76.17
67517;BME280;54359;59.124;37.910;2022-10-16T00:52:25;100615.97;;;8.84;76.39
67517;BME280;54359;59.124;37.910;2022-10-16T00:54:52;100620.13;;;8.80;76.55
67517;BME280;54359;59.124;37.910;2022-10-16T00:57:19;100604.47;;;8.71;75.67
67517;BME280;54359;59.124;37.910;2022-10-16T00:59:45;100619.13;;;8.75;76.43
67517;BME280;54359;59.124;37.910;2022-10-16T01:02:14;100613.88;;;8.71;76.63
67517;BME280;54359;59.124;37.910;2022-10-16T01:04:50;100610.34;;;8.67;76.44
67517;BME280;54359;59.124;37.910;2022-10-16T01:13:17;100619.69;;;8.65;76.38
67517;BME280;54359;59.124;37.910;2022-10-16T01:15:54;100616.25;;;8.64;76.30
67517;BME280;54359;59.124;37.910;2022-10-16T01:18:36;100614.53;;;8.63;76.20
67517;BME280;54359;59.124;37.910;2022-10-16T01:21:06;100625.66;;;8.64;75.87
67517;BME280;54359;59.124;37.910;2022-10-16T01:29:36;100603.16;;;8.54;76.21
67517;BME280;54359;59.124;37.910;2022-10-16T01:32:13;100617.69;;;8.55;76.06
67517;BME280;54359;59.124;37.910;2022-10-16T01:35:11;100615.97;;;8.54;76.35
67517;BME280;54359;59.124;37.910;2022-10-16T01:37:39;100615.88;;;8.51;76.04
67517;BME280;54359;59.124;37.910;2022-10-16T01:40:09;100615.78;;;8.48;76.49
67517;BME280;54359;59.124;37.910;2022-10-16T01:42:47;100616.53;;;8.43;76.01
67517;BME280;54359;59.124;37.910;2022-10-16T01:45:15;100605.97;;;8.34;76.42
67517;BME280;54359;59.124;37.910;2022-10-16T01:47:44;100625.91;;;8.43;76.02
67517;BME280;54359;59.124;37.910;2022-10-16T01:50:12;100613.63;;;8.33;76.61
67517;BME280;54359;59.124;37.910;2022-10-16T01:52:43;100603.19;;;8.26;76.67
67517;BME280;54359;59.124;37.910;2022-10-16T01:55:16;100624.72;;;8.33;76.68
67517;BME280;54359;59.124;37.910;2022-10-16T01:57:47;100590.81;;;8.13;76.28
67517;BME280;54359;59.124;37.910;2022-10-16T02:00:16;100614.13;;;8.21;76.97
67517;BME280;54359;59.124;37.910;2022-10-16T02:02:46;100611.41;;;8.16;76.48
67517;BME280;54359;59.124;37.910;2022-10-16T02:05:28;100624.31;;;8.19;76.61
67517;BME280;54359;59.124;37.910;2022-10-16T02:07:56;100623.25;;;8.13;76.81
67517;BME280;54359;59.124;37.910;2022-10-16T02:10:23;100617.88;;;8.05;76.50
67517;BME280;54359;59.124;37.910;2022-10-16T02:13:02;100622.94;;;8.03;76.55
67517;BME280;54359;59.124;37.910;2022-10-16T02:15:29;100628.91;;;8.02;76.10
67517;BME280;54359;59.124;37.910;2022-10-16T02:17:55;100620.19;;;7.96;76.71
67517;BME280;54359;59.124;37.910;2022-10-16T02:20:25;100622.56;;;7.91;76.49
67517;BME280;54359;59.124;37.910;2022-10-16T02:22:53;100629.34;;;7.89;76.84
67517;BME280;54359;59.124;37.910;2022-10-16T02:25:32;100630.06;;;7.85;76.80
67517;BME280;54359;59.124;37.910;2022-10-16T02:30:54;100633.25;;;7.78;77.04
67517;BME280;54359;59.124;37.910;2022-10-16T02:33:23;100628.84;;;7.74;76.74
67517;BME280;54359;59.124;37.910;2022-10-16T02:35:52;100625.97;;;7.64;77.03
67517;BME280;54359;59.124;37.910;2022-10-16T02:38:20;100634.56;;;7.65;76.79
67517;BME280;54359;59.124;37.910;2022-10-16T02:40:46;100635.28;;;7.61;77.03
67517;BME280;54359;59.124;37.910;2022-10-16T02:43:13;100633.44;;;7.57;76.98
67517;BME280;54359;59.124;37.910;2022-10-16T02:45:49;100635.00;;;7.53;77.23
67517;BME280;54359;59.124;37.910;2022-10-16T02:48:15;100640.91;;;7.51;76.92
67517;BME280;54359;59.124;37.910;2022-10-16T02:50:42;100637.22;;;7.42;76.49
67517;BME280;54359;59.124;37.910;2022-10-16T02:53:08;100633.75;;;7.40;77.32
67517;BME280;54359;59.124;37.910;2022-10-16T02:55:34;100630.06;;;7.32;77.14
67517;BME280;54359;59.124;37.910;2022-10-16T02:58:00;100655.88;;;7.40;77.27
67517;BME280;54359;59.124;37.910;2022-10-16T03:00:26;100648.91;;;7.36;77.07
67517;BME280;54359;59.124;37.910;2022-10-16T03:02:52;100640.09;;;7.28;76.91
67517;BME280;54359;59.124;37.910;2022-10-16T03:05:19;100650.31;;;7.28;77.03
67517;BME280;54359;59.124;37.910;2022-10-16T03:07:45;100634.69;;;7.18;77.03
67517;BME280;54359;59.124;37.910;2022-10-16T03:10:11;100657.97;;;7.26;77.36
67517;BME280;54359;59.124;37.910;2022-10-16T03:12:37;100638.66;;;7.10;77.30
67517;BME280;54359;59.124;37.910;2022-10-16T03:15:03;100637.78;;;7.10;77.31
67517;BME280;54359;59.124;37.910;2022-10-16T03:17:29;100616.69;;;6.91;77.22
67517;BME280;54359;59.124;37.910;2022-10-16T03:19:58;100654.88;;;7.11;77.32
67517;BME280;54359;59.124;37.910;2022-10-16T03:22:25;100659.06;;;7.09;77.09
67517;BME280;54359;59.124;37.910;2022-10-16T03:24:52;100641.66;;;6.98;77.61
67517;BME280;54359;59.124;37.910;2022-10-16T03:27:18;100656.97;;;6.98;77.03
67517;BME280;54359;59.124;37.910;2022-10-16T03:29:45;100654.34;;;6.95;77.20
67517;BME280;54359;59.124;37.910;2022-10-16T03:32:10;100657.69;;;6.94;77.89
67517;BME280;54359;59.124;37.910;2022-10-16T03:34:36;100666.13;;;6.92;77.52
67517;BME280;54359;59.124;37.910;2022-10-16T03:37:02;100661.72;;;6.88;77.50
67517;BME280;54359;59.124;37.910;2022-10-16T03:39:29;100666.00;;;6.89;77.43
67517;BME280;54359;59.124;37.910;2022-10-16T03:41:54;100641.59;;;6.73;77.79
67517;BME280;54359;59.124;37.910;2022-10-16T03:44:20;100655.16;;;6.72;77.21
67517;BME280;54359;59.124;37.910;2022-10-16T03:46:47;100648.97;;;6.65;77.80
67517;BME280;54359;59.124;37.910;2022-10-16T03:49:13;100667.25;;;6.76;77.95
67517;BME280;54359;59.124;37.910;2022-10-16T03:51:39;100667.00;;;6.70;77.90
67517;BME280;54359;59.124;37.910;2022-10-16T03:54:05;100659.13;;;6.63;77.79
67517;BME280;54359;59.124;37.910;2022-10-16T03:56:30;100659.13;;;6.63;77.92
67517;BME280;54359;59.124;37.910;2022-10-16T03:58:57;100671.13;;;6.66;77.83
67517;BME280;54359;59.124;37.910;2022-10-16T04:01:23;100656.16;;;6.53;78.07
67517;BME280;54359;59.124;37.910;2022-10-16T04:03:48;100658.78;;;6.54;78.00
67517;BME280;54359;59.124;37.910;2022-10-16T04:06:14;100669.00;;;6.54;77.61
67517;BME280;54359;59.124;37.910;2022-10-16T04:08:42;100657.56;;;6.44;78.07
67517;BME280;54359;59.124;37.910;2022-10-16T04:11:08;100670.56;;;6.51;78.05
67517;BME280;54359;59.124;37.910;2022-10-16T04:13:34;100677.59;;;6.56;77.58
67517;BME280;54359;59.124;37.910;2022-10-16T04:16:00;100678.41;;;6.55;77.86
67517;BME280;54359;59.124;37.910;2022-10-16T04:18:28;100673.19;;;6.52;78.04
67517;BME280;54359;59.124;37.910;2022-10-16T04:20:54;100669.47;;;6.44;78.13
67517;BME280;54359;59.124;37.910;2022-10-16T04:23:21;100670.41;;;6.46;77.65
67517;BME280;54359;59.124;37.910;2022-10-16T04:25:48;100677.16;;;6.45;78.19
67517;BME280;54359;59.124;37.910;2022-10-16T04:28:14;100665.00;;;6.38;78.26
67517;BME280;54359;59.124;37.910;2022-10-16T04:30:40;100657.84;;;6.30;78.28
67517;BME280;54359;59.124;37.910;2022-10-16T04:33:08;100679.78;;;6.47;77.96
67517;BME280;54359;59.124;37.910;2022-10-16T04:35:36;100669.34;;;6.41;77.95
67517;BME280;54359;59.124;37.910;2022-10-16T04:38:02;100663.38;;;6.40;77.65
67517;BME280;54359;59.124;37.910;2022-10-16T04:40:28;100677.22;;;6.47;78.45
67517;BME280;54359;59.124;37.910;2022-10-16T04:42:54;100663.31;;;6.39;78.38
67517;BME280;54359;59.124;37.910;2022-10-16T04:45:21;100675.50;;;6.46;78.10
67517;BME280;54359;59.124;37.910;2022-10-16T04:47:47;100679.03;;;6.50;78.17
67517;BME280;54359;59.124;37.910;2022-10-16T04:50:13;100666.91;;;6.44;78.05
67517;BME280;54359;59.124;37.910;2022-10-16T04:52:39;100674.81;;;6.50;78.36
67517;BME280;54359;59.124;37.910;2022-10-16T04:55:05;100670.41;;;6.46;77.86
67517;BME280;54359;59.124;37.910;2022-10-16T04:57:31;100675.84;;;6.55;77.85
67517;BME280;54359;59.124;37.910;2022-10-16T05:00:02;100662.91;;;6.51;77.89
67517;BME280;54359;59.124;37.910;2022-10-16T05:02:30;100684.56;;;6.60;77.95
67517;BME280;54359;59.124;37.910;2022-10-16T05:04:57;100665.53;;;6.52;78.07
67517;BME280;54359;59.124;37.910;2022-10-16T05:07:22;100676.94;;;6.62;78.01
67517;BME280;54359;59.124;37.910;2022-10-16T05:09:53;100677.13;;;6.67;78.27
67517;BME280;54359;59.124;37.910;2022-10-16T05:12:20;100688.38;;;6.72;78.31
67517;BME280;54359;59.124;37.910;2022-10-16T05:14:46;100685.94;;;6.75;77.86
67517;BME280;54359;59.124;37.910;2022-10-16T05:17:12;100683.41;;;6.75;78.18
67517;BME280;54359;59.124;37.910;2022-10-16T05:19:45;100688.78;;;6.82;78.04
67517;BME280;54359;59.124;37.910;2022-10-16T05:22:11;100681.16;;;6.84;78.10
67517;BME280;54359;59.124;37.910;2022-10-16T05:24:37;100688.25;;;6.91;78.22
67517;BME280;54359;59.124;37.910;2022-10-16T05:27:02;100690.06;;;6.94;78.14
67517;BME280;54359;59.124;37.910;2022-10-16T05:29:30;100676.50;;;6.96;78.18
67517;BME280;54359;59.124;37.910;2022-10-16T05:31:56;100672.38;;;7.00;77.87
67517;BME280;54359;59.124;37.910;2022-10-16T05:34:22;100685.44;;;7.08;78.13
67517;BME280;54359;59.124;37.910;2022-10-16T05:36:48;100673.38;;;7.03;77.93
67517;BME280;54359;59.124;37.910;2022-10-16T05:39:15;100696.59;;;7.10;77.75
67517;BME280;54359;59.124;37.910;2022-10-16T05:41:41;100682.75;;;7.04;77.92
67517;BME280;54359;59.124;37.910;2022-10-16T05:44:07;100687.88;;;7.04;77.98
67517;BME280;54359;59.124;37.910;2022-10-16T05:46:33;100687.88;;;7.04;77.71
67517;BME280;54359;59.124;37.910;2022-10-16T05:49:00;100694.75;;;7.05;77.93
67517;BME280;54359;59.124;37.910;2022-10-16T05:51:26;100699.31;;;7.14;77.94
67517;BME280;54359;59.124;37.910;2022-10-16T05:53:52;100688.16;;;7.12;77.66
67517;BME280;54359;59.124;37.910;2022-10-16T05:56:21;100696.13;;;7.21;77.92
67517;BME280;54359;59.124;37.910;2022-10-16T05:58:48;100678.09;;;7.17;77.62
67517;BME280;54359;59.124;37.910;2022-10-16T06:01:16;100687.59;;;7.21;77.85
67517;BME280;54359;59.124;37.910;2022-10-16T06:03:43;100686.63;;;7.17;78.15
67517;BME280;54359;59.124;37.910;2022-10-16T06:06:16;100680.72;;;7.18;77.55
67517;BME280;54359;59.124;37.910;2022-10-16T06:08:44;100688.59;;;7.24;77.15
67517;BME280;54359;59.124;37.910;2022-10-16T06:11:14;100697.28;;;7.30;77.62
67517;BME280;54359;59.124;37.910;2022-10-16T06:13:41;100692.00;;;7.25;77.63
67517;BME280;54359;59.124;37.910;2022-10-16T06:16:10;100702.38;;;7.28;77.70
67517;BME280;54359;59.124;37.910;2022-10-16T06:18:37;100705.78;;;7.29;77.50
67517;BME280;54359;59.124;37.910;2022-10-16T06:21:09;100701.59;;;7.31;77.95
67517;BME280;54359;59.124;37.910;2022-10-16T06:23:35;100694.63;;;7.27;78.00
67517;BME280;54359;59.124;37.910;2022-10-16T06:26:09;100702.81;;;7.42;78.06
67517;BME280;54359;59.124;37.910;2022-10-16T06:28:37;100707.28;;;7.48;77.51
67517;BME280;54359;59.124;37.910;2022-10-16T06:31:05;100707.41;;;7.51;77.87
67517;BME280;54359;59.124;37.910;2022-10-16T06:33:32;100692.88;;;7.50;77.38
67517;BME280;54359;59.124;37.910;2022-10-16T06:36:11;100707.00;;;7.64;78.39
67517;BME280;54359;59.124;37.910;2022-10-16T06:38:38;100705.47;;;7.69;77.67
67517;BME280;54359;59.124;37.910;2022-10-16T06:41:05;100709.31;;;7.82;77.68
67517;BME280;54359;59.124;37.910;2022-10-16T06:43:34;100700.00;;;7.84;77.80
67517;BME280;54359;59.124;37.910;2022-10-16T06:46:05;100689.91;;;7.89;77.96
67517;BME280;54359;59.124;37.910;2022-10-16T06:48:36;100712.03;;;8.14;77.94
67517;BME280;54359;59.124;37.910;2022-10-16T06:51:08;100704.00;;;8.29;78.22
67517;BME280;54359;59.124;37.910;2022-10-16T06:53:36;100709.81;;;8.50;77.43
67517;BME280;54359;59.124;37.910;2022-10-16T06:56:15;100656.31;;;8.34;77.27
67517;BME280;54359;59.124;37.910;2022-10-16T06:58:42;100707.91;;;8.72;78.10
67517;BME280;54359;59.124;37.910;2022-10-16T07:01:15;100707.97;;;8.75;77.18
67517;BME280;54359;59.124;37.910;2022-10-16T07:03:44;100707.25;;;8.79;77.88
67517;BME280;54359;59.124;37.910;2022-10-16T07:06:13;100709.19;;;8.86;77.63
67517;BME280;54359;59.124;37.910;2022-10-16T07:08:41;100700.47;;;8.81;77.38
67517;BME280;54359;59.124;37.910;2022-10-16T07:11:09;100709.13;;;8.84;77.19
67517;BME280;54359;59.124;37.910;2022-10-16T07:13:38;100714.25;;;8.84;77.31
67517;BME280;54359;59.124;37.910;2022-10-16T07:16:16;100701.19;;;8.77;77.57
67517;BME280;54359;59.124;37.910;2022-10-16T07:18:44;100704.44;;;8.71;77.64
67517;BME280;54359;59.124;37.910;2022-10-16T07:21:14;100707.78;;;8.69;76.85
67517;BME280;54359;59.124;37.910;2022-10-16T07:23:41;100657.28;;;8.37;78.14
67517;BME280;54359;59.124;37.910;2022-10-16T07:26:12;100699.97;;;8.64;77.24
67517;BME280;54359;59.124;37.910;2022-10-16T07:28:42;100691.63;;;8.71;77.53
67517;BME280;54359;59.124;37.910;2022-10-16T07:31:15;100699.84;;;8.88;77.14
67517;BME280;54359;59.124;37.910;2022-10-16T07:34:11;100688.06;;;8.95;77.83
67517;BME280;54359;59.124;37.910;2022-10-16T07:39:52;100621.41;;;8.64;76.77
67517;BME280;54359;59.124;37.910;2022-10-16T07:42:22;100640.66;;;8.80;77.47
67517;BME280;54359;59.124;37.910;2022-10-16T07:44:54;100662.66;;;9.04;77.96
67517;BME280;54359;59.124;37.910;2022-10-16T07:47:42;100662.91;;;9.13;77.93
67517;BME280;54359;59.124;37.910;2022-10-16T07:53:07;100690.84;;;9.34;77.03
67517;BME280;54359;59.124;37.910;2022-10-16T07:55:37;100662.28;;;9.22;78.01
67517;BME280;54359;59.124;37.910;2022-10-16T08:11:29;100689.19;;;9.70;77.34
67517;BME280;54359;59.124;37.910;2022-10-16T08:21:21;100632.69;;;9.68;76.94
67517;BME280;54359;59.124;37.910;2022-10-16T08:23:55;100640.56;;;9.74;76.62
67517;BME280;54359;59.124;37.910;2022-10-16T08:37:17;100676.81;;;10.24;76.95
67517;BME280;54359;59.124;37.910;2022-10-16T09:00:19;100641.09;;;10.34;76.12
67517;BME280;54359;59.124;37.910;2022-10-16T09:06:38;100646.38;;;10.41;75.71
67517;BME280;54359;59.124;37.910;2022-10-16T09:12:00;100642.06;;;10.39;75.68
67517;BME280;54359;59.124;37.910;2022-10-16T09:20:58;100626.59;;;10.36;75.28
67517;BME280;54359;59.124;37.910;2022-10-16T09:24:14;100591.03;;;10.18;75.31
67517;BME280;54359;59.124;37.910;2022-10-16T09:26:47;100600.63;;;10.26;75.03
67517;BME280;54359;59.124;37.910;2022-10-16T09:29:20;100619.13;;;10.48;75.01
67517;BME280;54359;59.124;37.910;2022-10-16T09:31:47;100595.03;;;10.43;75.03
67517;BME280;54359;59.124;37.910;2022-10-16T09:44:00;100603.00;;;11.01;74.50
67517;BME280;54359;59.124;37.910;2022-10-16T09:53:11;100568.75;;;11.02;74.14
67517;BME280;54359;59.124;37.910;2022-10-16T09:56:11;100578.31;;;11.11;74.21
67517;BME280;54359;59.124;37.910;2022-10-16T09:58:43;100594.94;;;11.30;74.32
67517;BME280;54359;59.124;37.910;2022-10-16T10:01:17;100544.00;;;11.08;74.21
67517;BME280;54359;59.124;37.910;2022-10-16T10:03:44;100563.19;;;11.27;74.09
67517;BME280;54359;59.124;37.910;2022-10-16T10:09:42;100544.41;;;11.33;73.71
67517;BME280;54359;59.124;37.910;2022-10-16T10:12:25;100585.06;;;11.53;73.61
67517;BME280;54359;59.124;37.910;2022-10-16T10:15:24;100574.81;;;11.56;73.66
67517;BME280;54359;59.124;37.910;2022-10-16T10:18:24;100575.78;;;11.64;73.56
67517;BME280;54359;59.124;37.910;2022-10-16T10:21:02;100578.66;;;11.82;73.79
67517;BME280;54359;59.124;37.910;2022-10-16T10:23:32;100566.72;;;11.87;73.46
67517;BME280;54359;59.124;37.910;2022-10-16T10:26:18;100571.28;;;12.05;73.66
67517;BME280;54359;59.124;37.910;2022-10-16T10:41:36;100576.75;;;14.11;72.17
67517;BME280;54359;59.124;37.910;2022-10-16T10:47:22;100564.19;;;14.95;72.05
67517;BME280;54359;59.124;37.910;2022-10-16T10:55:51;100555.53;;;16.04;71.03
67517;BME280;54359;59.124;37.910;2022-10-16T11:02:00;100544.22;;;16.16;71.07
67517;BME280;54359;59.124;37.910;2022-10-16T11:07:25;100533.84;;;16.25;71.07
67517;BME280;54359;59.124;37.910;2022-10-16T11:10:07;100557.16;;;16.37;71.27
67517;BME280;54359;59.124;37.910;2022-10-16T11:17:13;100539.94;;;16.07;71.17
67517;BME280;54359;59.124;37.910;2022-10-16T11:20:24;100565.72;;;16.50;71.33
67517;BME280;54359;59.124;37.910;2022-10-16T11:23:29;100556.06;;;16.77;70.90
67517;BME280;54359;59.124;37.910;2022-10-16T11:27:05;100538.09;;;16.38;70.88
67517;BME280;54359;59.124;37.910;2022-10-16T11:29:58;100556.84;;;16.99;71.19
67517;BME280;54359;59.124;37.910;2022-10-16T11:32:36;100554.69;;;17.53;71.29
67517;BME280;54359;59.124;37.910;2022-10-16T11:36:06;100518.72;;;17.98;70.68
67517;BME280;54359;59.124;37.910;2022-10-16T11:39:01;100546.47;;;18.70;70.05
67517;BME280;54359;59.124;37.910;2022-10-16T11:44:54;100538.31;;;19.49;69.80
67517;BME280;54359;59.124;37.910;2022-10-16T11:48:08;100535.34;;;19.69;69.33
67517;BME280;54359;59.124;37.910;2022-10-16T11:51:48;100511.25;;;19.55;69.01
67517;BME280;54359;59.124;37.910;2022-10-16T11:55:45;100530.25;;;20.10;68.72
67517;BME280;54359;59.124;37.910;2022-10-16T11:58:30;100514.41;;;20.19;68.52
67517;BME280;54359;59.124;37.910;2022-10-16T12:01:40;100529.38;;;20.53;68.62
67517;BME280;54359;59.124;37.910;2022-10-16T12:07:22;100503.16;;;20.56;67.70
67517;BME280;54359;59.124;37.910;2022-10-16T12:09:51;100522.97;;;20.26;67.80
67517;BME280;54359;59.124;37.910;2022-10-16T12:12:46;100520.69;;;20.10;68.33
67517;BME280;54359;59.124;37.910;2022-10-16T12:15:28;100512.81;;;20.12;67.81
67517;BME280;54359;59.124;37.910;2022-10-16T12:17:55;100515.13;;;20.26;68.40
67517;BME280;54359;59.124;37.910;2022-10-16T12:23:52;100491.56;;;19.87;67.93
67517;BME280;54359;59.124;37.910;2022-10-16T12:26:31;100506.69;;;19.66;67.82
67517;BME280;54359;59.124;37.910;2022-10-16T12:29:41;100506.50;;;19.79;67.75
67517;BME280;54359;59.124;37.910;2022-10-16T12:32:41;100508.69;;;20.00;67.40
67517;BME280;54359;59.124;37.910;2022-10-16T12:35:43;100521.34;;;20.20;67.34
67517;BME280;54359;59.124;37.910;2022-10-16T12:38:52;100508.13;;;20.28;66.96
67517;BME280;54359;59.124;37.910;2022-10-16T12:41:33;100497.38;;;20.42;66.92
67517;BME280;54359;59.124;37.910;2022-10-16T12:44:42;100500.78;;;20.45;67.27
67517;BME280;54359;59.124;37.910;2022-10-16T12:51:36;100497.06;;;20.17;66.96
67517;BME280;54359;59.124;37.910;2022-10-16T12:54:40;100502.09;;;19.81;66.97
67517;BME280;54359;59.124;37.910;2022-10-16T12:57:52;100500.72;;;19.61;67.06
67517;BME280;54359;59.124;37.910;2022-10-16T13:17:09;100477.59;;;17.50;67.40
67517;BME280;54359;59.124;37.910;2022-10-16T13:20:06;100492.72;;;17.05;67.57
67517;BME280;54359;59.124;37.910;2022-10-16T13:27:05;100489.03;;;15.69;67.26
67517;BME280;54359;59.124;37.910;2022-10-16T13:29:48;100485.63;;;15.27;67.29
67517;BME280;54359;59.124;37.910;2022-10-16T13:33:35;100483.03;;;14.62;67.30
67517;BME280;54359;59.124;37.910;2022-10-16T13:36:33;100476.78;;;14.14;67.26
67517;BME280;54359;59.124;37.910;2022-10-16T13:39:35;100461.09;;;13.76;67.28
67517;BME280;54359;59.124;37.910;2022-10-16T13:42:59;100489.47;;;13.60;67.88
67517;BME280;54359;59.124;37.910;2022-10-16T13:45:36;100485.00;;;13.41;67.34
67517;BME280;54359;59.124;37.910;2022-10-16T13:48:11;100490.00;;;13.22;67.41
67517;BME280;54359;59.124;37.910;2022-10-16T13:50:43;100486.47;;;13.09;67.62
67517;BME280;54359;59.124;37.910;2022-10-16T13:53:41;100486.31;;;12.93;67.24
67517;BME280;54359;59.124;37.910;2022-10-16T13:56:20;100493.94;;;12.79;67.31
67517;BME280;54359;59.124;37.910;2022-10-16T13:59:45;100499.00;;;12.71;67.30
67517;BME280;54359;59.124;37.910;2022-10-16T14:02:57;100479.91;;;12.52;67.28
67517;BME280;54359;59.124;37.910;2022-10-16T14:05:25;100460.81;;;12.33;67.57
67517;BME280;54359;59.124;37.910;2022-10-16T14:07:51;100437.31;;;12.07;67.27
67517;BME280;54359;59.124;37.910;2022-10-16T14:10:30;100481.31;;;12.22;67.62
67517;BME280;54359;59.124;37.910;2022-10-16T14:13:02;100458.78;;;12.06;67.18
67517;BME280;54359;59.124;37.910;2022-10-16T14:15:35;100447.44;;;11.93;67.57
67517;BME280;54359;59.124;37.910;2022-10-16T14:18:19;100437.03;;;11.87;67.39
67517;BME280;54359;59.124;37.910;2022-10-16T14:20:48;100452.56;;;11.90;67.49
67517;BME280;54359;59.124;37.910;2022-10-16T14:23:30;100436.91;;;11.78;67.73
67517;BME280;54359;59.124;37.910;2022-10-16T14:28:35;100469.63;;;11.83;67.89
67517;BME280;54359;59.124;37.910;2022-10-16T14:31:13;100475.63;;;11.84;67.65
67517;BME280;54359;59.124;37.910;2022-10-16T14:33:49;100466.00;;;11.71;67.97
67517;BME280;54359;59.124;37.910;2022-10-16T14:36:17;100477.19;;;11.73;67.76
67517;BME280;54359;59.124;37.910;2022-10-16T14:39:06;100487.38;;;11.63;67.45
67517;BME280;54359;59.124;37.910;2022-10-16T14:41:46;100439.63;;;11.24;67.71
67517;BME280;54359;59.124;37.910;2022-10-16T14:44:19;100479.31;;;11.40;67.73
67517;BME280;54359;59.124;37.910;2022-10-16T14:46:47;100480.94;;;11.35;67.83
67517;BME280;54359;59.124;37.910;2022-10-16T14:49:19;100434.19;;;11.06;67.78
67517;BME280;54359;59.124;37.910;2022-10-16T14:51:47;100454.91;;;11.14;67.93
67517;BME280;54359;59.124;37.910;2022-10-16T14:54:17;100460.00;;;11.12;67.88
67517;BME280;54359;59.124;37.910;2022-10-16T14:56:53;100449.56;;;11.01;67.76
67517;BME280;54359;59.124;37.910;2022-10-16T14:59:51;100485.97;;;11.26;68.04
67517;BME280;54359;59.124;37.910;2022-10-16T15:02:31;100491.09;;;11.24;67.84
67517;BME280;54359;59.124;37.910;2022-10-16T15:05:07;100466.88;;;11.13;67.77
67517;BME280;54359;59.124;37.910;2022-10-16T15:07:39;100476.38;;;11.17;68.14
67517;BME280;54359;59.124;37.910;2022-10-16T15:10:06;100433.06;;;10.90;68.15
67517;BME280;54359;59.124;37.910;2022-10-16T15:12:33;100426.84;;;10.77;68.00
67517;BME280;54359;59.124;37.910;2022-10-16T15:14:59;100426.78;;;10.73;67.92
67517;BME280;54359;59.124;37.910;2022-10-16T15:17:25;100475.09;;;10.92;68.52
67517;BME280;54359;59.124;37.910;2022-10-16T15:19:52;100453.44;;;10.78;68.23
67517;BME280;54359;59.124;37.910;2022-10-16T15:22:18;100447.34;;;10.74;68.20
67517;BME280;54359;59.124;37.910;2022-10-16T15:24:50;100447.25;;;10.68;68.20
67517;BME280;54359;59.124;37.910;2022-10-16T15:27:17;100453.41;;;10.75;68.66
67517;BME280;54359;59.124;37.910;2022-10-16T15:29:45;100444.72;;;10.70;68.53
67517;BME280;54359;59.124;37.910;2022-10-16T15:32:12;100465.59;;;10.88;68.65
67517;BME280;54359;59.124;37.910;2022-10-16T15:34:38;100437.97;;;10.76;68.26
67517;BME280;54359;59.124;37.910;2022-10-16T15:37:04;100445.66;;;10.73;68.12
67517;BME280;54359;59.124;37.910;2022-10-16T15:39:30;100459.63;;;10.89;68.11
67517;BME280;54359;59.124;37.910;2022-10-16T15:41:56;100410.25;;;10.58;68.04
67517;BME280;54359;59.124;37.910;2022-10-16T15:44:22;100452.00;;;10.94;68.21
67517;BME280;54359;59.124;37.910;2022-10-16T15:46:54;100448.50;;;10.90;68.01
67517;BME280;54359;59.124;37.910;2022-10-16T15:49:20;100431.19;;;10.80;68.13
67517;BME280;54359;59.124;37.910;2022-10-16T15:51:47;100436.44;;;10.86;68.15
67517;BME280;54359;59.124;37.910;2022-10-16T15:54:13;100434.78;;;10.90;68.37
67517;BME280;54359;59.124;37.910;2022-10-16T15:56:39;100429.56;;;10.85;68.59
67517;BME280;54359;59.124;37.910;2022-10-16T15:59:06;100422.53;;;10.76;68.46
67517;BME280;54359;59.124;37.910;2022-10-16T16:01:34;100447.59;;;10.88;68.45
67517;BME280;54359;59.124;37.910;2022-10-16T16:04:10;100409.63;;;10.72;68.61
67517;BME280;54359;59.124;37.910;2022-10-16T16:06:45;100444.66;;;11.18;68.65
67517;BME280;54359;59.124;37.910;2022-10-16T16:09:12;100430.91;;;11.16;68.11
67517;BME280;54359;59.124;37.910;2022-10-16T16:11:39;100406.66;;;11.00;68.18
67517;BME280;54359;59.124;37.910;2022-10-16T16:14:11;100440.25;;;11.11;68.24
67517;BME280;54359;59.124;37.910;2022-10-16T16:16:42;100422.78;;;10.90;68.08
67517;BME280;54359;59.124;37.910;2022-10-16T16:19:29;100440.84;;;10.95;68.26